Time;durP1;ratioP1;P1;durP2;ratioP2;P2;SDS_P1;SDS_P2;PMS_P1;PMS_P2;Temp;Humidity;BMP_temperature;BMP_pressure;BME280_temperature;BME280_humidity;BME280_pressure;Samples;Min_cycle;Max_cycle;Signal;HPM_P1;HPM_P2
2021/12/09 00:01:01;;;;;;;8.33;3.70;;;5.50;99.90;;;;;;4997504;28;20412;-70
2021/12/09 00:03:31;;;;;;;7.20;4.00;;;5.40;99.90;;;;;;4997392;28;20403;-71
2021/12/09 00:05:57;;;;;;;8.23;3.80;;;5.40;99.90;;;;;;4999847;28;20450;-71
2021/12/09 00:08:26;;;;;;;5.83;3.50;;;5.40;99.90;;;;;;5015222;28;20490;-71
2021/12/09 00:10:53;;;;;;;5.67;3.90;;;5.30;99.90;;;;;;5015061;28;20424;-71
2021/12/09 00:13:19;;;;;;;7.50;4.10;;;5.20;99.90;;;;;;5015144;28;20460;-72
2021/12/09 00:15:44;;;;;;;5.57;4.30;;;5.20;99.90;;;;;;5014127;28;20456;-71
2021/12/09 00:18:10;;;;;;;6.73;3.97;;;5.20;99.90;;;;;;5017021;28;20468;-72
2021/12/09 00:20:36;;;;;;;7.23;4.40;;;5.20;99.90;;;;;;5016565;28;20646;-72
2021/12/09 00:23:02;;;;;;;5.93;4.00;;;5.20;99.90;;;;;;5017027;28;20175;-72
2021/12/09 00:25:28;;;;;;;6.70;4.00;;;5.20;99.90;;;;;;5016762;28;20434;-70
2021/12/09 00:27:53;;;;;;;6.17;4.50;;;5.30;99.90;;;;;;5014690;28;20430;-71
2021/12/09 00:30:20;;;;;;;6.60;3.90;;;5.30;99.90;;;;;;5016505;28;20171;-72
2021/12/09 00:32:46;;;;;;;6.30;4.37;;;5.30;99.90;;;;;;5016190;28;20178;-72
2021/12/09 00:35:16;;;;;;;6.97;4.37;;;5.20;99.90;;;;;;5015900;28;20458;-72
2021/12/09 00:37:53;;;;;;;7.63;4.80;;;5.10;99.90;;;;;;5014388;28;20458;-72
2021/12/09 00:40:19;;;;;;;8.80;4.07;;;5.00;99.90;;;;;;5011242;28;20938;-72
2021/12/09 00:42:45;;;;;;;8.33;4.17;;;5.00;99.90;;;;;;4996506;28;20488;-72
2021/12/09 00:45:10;;;;;;;5.17;4.40;;;4.90;99.90;;;;;;4997119;28;20195;-72
2021/12/09 00:47:36;;;;;;;7.80;3.90;;;4.90;99.90;;;;;;4996715;28;20187;-72
2021/12/09 00:50:03;;;;;;;6.80;4.80;;;4.90;99.90;;;;;;4996753;28;20187;-72
2021/12/09 00:52:29;;;;;;;6.27;4.43;;;4.80;99.90;;;;;;4996894;28;20427;-71
2021/12/09 00:54:56;;;;;;;5.43;4.67;;;4.80;99.90;;;;;;4995661;28;20833;-72
2021/12/09 00:57:23;;;;;;;9.63;4.70;;;4.80;99.90;;;;;;4996297;28;20530;-70
2021/12/09 00:59:49;;;;;;;6.53;4.83;;;4.80;99.90;;;;;;4999985;28;20413;-72
2021/12/09 01:02:14;;;;;;;6.70;5.17;;;4.80;99.90;;;;;;5001994;28;20513;-71
2021/12/09 01:04:41;;;;;;;6.60;4.77;;;4.80;99.90;;;;;;5002629;28;20473;-71
2021/12/09 01:07:07;;;;;;;9.60;4.50;;;4.70;99.90;;;;;;5001246;28;20175;-72
2021/12/09 01:09:33;;;;;;;5.03;3.70;;;4.70;99.90;;;;;;5001446;28;20777;-72
2021/12/09 01:11:58;;;;;;;4.80;4.10;;;4.60;99.90;;;;;;5001735;28;20423;-72
2021/12/09 01:14:24;;;;;;;6.27;3.80;;;4.60;99.90;;;;;;4999422;28;20280;-72
2021/12/09 01:16:50;;;;;;;4.50;4.00;;;4.60;99.90;;;;;;4999724;28;20172;-72
2021/12/09 01:19:16;;;;;;;5.53;4.00;;;4.50;99.90;;;;;;4999983;28;20470;-72
2021/12/09 01:21:42;;;;;;;10.03;4.30;;;4.40;99.90;;;;;;4998564;28;20184;-72
2021/12/09 01:24:08;;;;;;;5.57;4.20;;;4.30;99.90;;;;;;5000170;28;20512;-71
2021/12/09 01:26:33;;;;;;;7.00;4.03;;;4.30;99.90;;;;;;4997890;28;20223;-71
2021/12/09 01:29:04;;;;;;;6.33;4.10;;;4.20;99.90;;;;;;4997609;28;20188;-71
2021/12/09 01:31:35;;;;;;;7.27;4.23;;;4.20;99.90;;;;;;4998489;28;20170;-72
2021/12/09 01:34:02;;;;;;;5.03;4.17;;;4.10;99.90;;;;;;4999217;28;20452;-71
2021/12/09 01:36:30;;;;;;;6.87;4.07;;;4.00;99.90;;;;;;4997817;28;20428;-71
2021/12/09 01:38:56;;;;;;;6.90;3.90;;;4.00;99.90;;;;;;4998716;28;20416;-71
2021/12/09 01:41:21;;;;;;;6.30;4.60;;;4.00;99.90;;;;;;4997971;28;20465;-71
2021/12/09 01:43:48;;;;;;;8.63;4.57;;;4.00;99.90;;;;;;4997981;28;20240;-71
2021/12/09 01:46:16;;;;;;;4.90;3.90;;;3.90;99.90;;;;;;4997701;28;20200;-71
2021/12/09 01:48:45;;;;;;;8.20;5.37;;;3.90;99.90;;;;;;4995901;28;20419;-71
2021/12/09 01:51:11;;;;;;;8.23;4.47;;;3.90;99.90;;;;;;4997267;28;20451;-71
2021/12/09 01:53:38;;;;;;;8.67;4.80;;;3.90;99.90;;;;;;4996999;28;20484;-71
2021/12/09 01:56:06;;;;;;;6.10;4.30;;;3.90;99.90;;;;;;4997681;28;20491;-71
2021/12/09 01:58:32;;;;;;;6.10;4.70;;;3.90;99.90;;;;;;4997515;28;20413;-71
2021/12/09 02:00:57;;;;;;;11.03;5.03;;;3.90;99.90;;;;;;5000065;28;20435;-70
2021/12/09 02:03:24;;;;;;;7.57;4.13;;;3.80;99.90;;;;;;5006085;28;20280;-72
2021/12/09 02:05:50;;;;;;;7.00;4.70;;;3.70;99.90;;;;;;5004266;28;20223;-71
2021/12/09 02:08:17;;;;;;;5.20;4.57;;;3.70;99.90;;;;;;4997272;28;20518;-72
2021/12/09 02:10:44;;;;;;;8.63;4.87;;;3.70;99.90;;;;;;4994829;28;20506;-71
2021/12/09 02:13:10;;;;;;;12.63;5.37;;;3.70;99.90;;;;;;4991670;28;20495;-73
2021/12/09 02:15:37;;;;;;;7.40;4.43;;;3.70;99.90;;;;;;4998024;28;20442;-73
2021/12/09 02:18:08;;;;;;;6.53;4.17;;;3.60;99.90;;;;;;4992939;28;20425;-72
2021/12/09 02:20:35;;;;;;;10.60;5.40;;;3.60;99.90;;;;;;4990625;28;20429;-71
2021/12/09 02:23:06;;;;;;;7.80;4.73;;;3.60;99.90;;;;;;4997340;28;20957;-72
2021/12/09 02:25:33;;;;;;;11.37;5.47;;;3.60;99.90;;;;;;4996070;28;20870;-71
2021/12/09 02:27:58;;;;;;;7.00;5.03;;;3.60;99.90;;;;;;4996594;28;20412;-72
2021/12/09 02:30:24;;;;;;;6.30;4.40;;;3.50;99.90;;;;;;4997319;28;20920;-71
2021/12/09 02:32:49;;;;;;;5.80;4.37;;;3.50;99.90;;;;;;4998519;28;20193;-71
2021/12/09 02:35:15;;;;;;;8.40;4.60;;;3.50;99.90;;;;;;4997949;28;20211;-71
2021/12/09 02:37:41;;;;;;;5.33;4.07;;;3.40;99.90;;;;;;4996969;28;20204;-72
2021/12/09 02:40:09;;;;;;;5.43;4.13;;;3.40;99.90;;;;;;5000644;28;20808;-71
2021/12/09 02:42:35;;;;;;;10.30;4.53;;;3.50;99.90;;;;;;5016568;28;20418;-71
2021/12/09 02:45:04;;;;;;;6.90;5.00;;;3.50;99.90;;;;;;5017245;28;20435;-72
2021/12/09 02:47:29;;;;;;;7.27;4.63;;;3.40;99.90;;;;;;5016819;28;20474;-72
2021/12/09 02:49:55;;;;;;;6.43;4.70;;;3.50;99.90;;;;;;5017387;28;20422;-72
2021/12/09 02:52:21;;;;;;;5.73;4.13;;;3.50;99.90;;;;;;5016510;28;20199;-72
2021/12/09 02:54:47;;;;;;;8.83;5.37;;;3.50;99.90;;;;;;5017375;28;20295;-71
2021/12/09 02:57:14;;;;;;;7.43;4.40;;;3.60;99.90;;;;;;5017994;28;20164;-72
2021/12/09 02:59:39;;;;;;;6.00;4.47;;;3.50;99.90;;;;;;5020356;28;20418;-72
2021/12/09 03:02:09;;;;;;;5.80;4.53;;;3.60;99.90;;;;;;5018990;28;20431;-73
2021/12/09 03:04:40;;;;;;;7.57;5.27;;;3.60;99.90;;;;;;5021009;28;20255;-72
2021/12/09 03:07:13;;;;;;;9.73;4.30;;;3.70;99.90;;;;;;5020718;28;20418;-71
2021/12/09 03:09:48;;;;;;;6.37;4.30;;;3.70;99.90;;;;;;5017348;28;21043;-72
2021/12/09 03:12:20;;;;;;;8.07;4.20;;;3.60;99.90;;;;;;5008863;28;20423;-71
2021/12/09 03:14:46;;;;;;;7.23;4.70;;;3.60;99.90;;;;;;4996322;28;20471;-72
2021/12/09 03:17:12;;;;;;;8.43;4.20;;;3.50;99.90;;;;;;4994410;28;21013;-71
2021/12/09 03:19:38;;;;;;;8.37;4.87;;;3.50;99.90;;;;;;4992109;28;20558;-71
2021/12/09 03:22:04;;;;;;;4.77;3.60;;;3.50;99.90;;;;;;4995859;28;20408;-71
2021/12/09 03:24:29;;;;;;;6.87;4.00;;;3.50;99.90;;;;;;4996131;28;20947;-72
2021/12/09 03:26:57;;;;;;;9.70;4.50;;;3.40;99.90;;;;;;5008739;28;20434;-72
2021/12/09 03:29:25;;;;;;;8.40;5.30;;;3.40;99.90;;;;;;5031423;28;20303;-72
2021/12/09 03:31:53;;;;;;;10.33;4.27;;;3.40;99.90;;;;;;5015277;28;20928;-72
2021/12/09 03:34:21;;;;;;;13.10;4.87;;;3.50;99.90;;;;;;5013621;28;20672;-72
2021/12/09 03:36:48;;;;;;;9.10;4.10;;;3.40;99.90;;;;;;5014304;28;20494;-72
2021/12/09 03:39:18;;;;;;;7.90;4.50;;;3.40;99.90;;;;;;5015669;28;20473;-71
2021/12/09 03:41:46;;;;;;;10.50;5.40;;;3.40;99.90;;;;;;5017007;28;20438;-71
2021/12/09 03:44:11;;;;;;;8.00;5.10;;;3.50;99.90;;;;;;5014483;28;20843;-72
2021/12/09 03:46:38;;;;;;;7.40;5.47;;;3.50;99.90;;;;;;5015569;28;20457;-72
2021/12/09 03:49:05;;;;;;;8.50;5.27;;;3.50;99.90;;;;;;5016509;28;20185;-72
2021/12/09 03:51:31;;;;;;;6.33;4.20;;;3.60;99.90;;;;;;5014750;28;20434;-72
2021/12/09 03:53:56;;;;;;;5.13;3.73;;;3.50;99.90;;;;;;5018212;28;20458;-73
2021/12/09 03:56:22;;;;;;;4.30;3.70;;;3.50;99.90;;;;;;5015570;28;20470;-72
2021/12/09 03:58:48;;;;;;;9.80;4.63;;;3.50;99.90;;;;;;5017162;28;20167;-72
2021/12/09 04:01:13;;;;;;;10.67;4.70;;;3.50;99.90;;;;;;5017336;28;20183;-71
2021/12/09 04:03:39;;;;;;;9.03;4.40;;;3.50;99.90;;;;;;5017704;28;20183;-73
2021/12/09 04:06:05;;;;;;;8.17;4.20;;;3.50;99.90;;;;;;5014926;28;20208;-72
2021/12/09 04:08:30;;;;;;;8.87;4.47;;;3.50;99.90;;;;;;5019217;28;20186;-72
2021/12/09 04:10:56;;;;;;;7.90;4.10;;;3.50;99.90;;;;;;5019114;28;20182;-73
2021/12/09 04:13:22;;;;;;;5.00;4.13;;;3.50;99.90;;;;;;5019077;28;20235;-73
2021/12/09 04:15:47;;;;;;;5.00;4.27;;;3.50;99.90;;;;;;5016182;28;20264;-71
2021/12/09 04:18:14;;;;;;;8.90;3.93;;;3.50;99.90;;;;;;5014945;28;20262;-71
2021/12/09 04:20:40;;;;;;;5.40;4.00;;;3.50;99.90;;;;;;5014871;28;20238;-72
2021/12/09 04:23:06;;;;;;;9.73;6.33;;;3.50;99.90;;;;;;5013890;28;20891;-71
2021/12/09 04:25:33;;;;;;;7.70;4.20;;;3.40;99.90;;;;;;5014388;28;20724;-71
2021/12/09 04:27:59;;;;;;;7.60;4.40;;;3.40;99.90;;;;;;5013002;28;20430;-72
2021/12/09 04:30:25;;;;;;;9.83;5.00;;;3.40;99.90;;;;;;5014155;28;20476;-71
2021/12/09 04:32:52;;;;;;;5.57;4.10;;;3.40;99.90;;;;;;5014112;28;20426;-71
2021/12/09 04:35:19;;;;;;;12.87;5.33;;;3.40;99.90;;;;;;5017095;28;20577;-71
2021/12/09 04:37:44;;;;;;;5.93;4.60;;;3.40;99.90;;;;;;5014648;28;20425;-71
2021/12/09 04:40:11;;;;;;;6.47;4.50;;;3.30;99.90;;;;;;5018117;28;20410;-71
2021/12/09 04:42:38;;;;;;;7.13;4.50;;;3.30;99.90;;;;;;5018721;28;20180;-70
2021/12/09 04:45:05;;;;;;;8.93;4.90;;;3.30;99.90;;;;;;5018074;28;20453;-71
2021/12/09 04:47:31;;;;;;;8.57;5.07;;;3.30;99.90;;;;;;5016133;28;20923;-71
2021/12/09 04:49:57;;;;;;;7.13;4.43;;;3.30;99.90;;;;;;5018093;28;20454;-72
2021/12/09 04:52:22;;;;;;;11.43;4.67;;;3.30;99.90;;;;;;5017023;28;20585;-71
2021/12/09 04:54:47;;;;;;;7.43;4.73;;;3.30;99.90;;;;;;5017124;28;20215;-71
2021/12/09 04:57:14;;;;;;;8.70;5.40;;;3.30;99.90;;;;;;5013658;22;20235;-68
2021/12/09 04:59:40;;;;;;;7.67;5.37;;;3.30;99.90;;;;;;4995314;28;20802;-68
2021/12/09 05:02:11;;;;;;;4.93;4.33;;;3.30;99.90;;;;;;4996441;28;20395;-68
2021/12/09 05:04:36;;;;;;;7.73;4.90;;;3.40;99.90;;;;;;4995825;28;20411;-67
2021/12/09 05:07:02;;;;;;;9.97;4.63;;;3.40;99.90;;;;;;4995973;28;20844;-66
2021/12/09 05:09:29;;;;;;;10.33;4.87;;;3.40;99.90;;;;;;4997268;28;20184;-67
2021/12/09 05:11:55;;;;;;;7.03;5.00;;;3.40;99.90;;;;;;4994708;28;20420;-67
2021/12/09 05:14:22;;;;;;;9.20;5.10;;;3.50;99.90;;;;;;4995856;28;20971;-67
2021/12/09 05:16:52;;;;;;;7.80;4.40;;;3.60;99.90;;;;;;4995627;28;20501;-68
2021/12/09 05:19:19;;;;;;;8.40;4.73;;;3.60;99.90;;;;;;4996085;28;20416;-68
2021/12/09 05:21:45;;;;;;;8.87;4.80;;;3.80;99.90;;;;;;5014891;28;20834;-68
2021/12/09 05:24:13;;;;;;;5.80;4.90;;;3.90;99.90;;;;;;5016045;28;20426;-68
2021/12/09 05:26:45;;;;;;;8.50;4.63;;;3.90;99.90;;;;;;5015284;28;20447;-68
2021/12/09 05:29:12;;;;;;;4.90;4.20;;;4.00;99.90;;;;;;5015757;28;20410;-68
2021/12/09 05:34:23;;;;;;;5.73;5.17;;;3.80;99.90;;;;;;4994099;28;20465;-67
2021/12/09 05:36:50;;;;;;;8.93;5.10;;;3.80;99.90;;;;;;4987681;28;20472;-68
2021/12/09 05:39:16;;;;;;;8.00;4.83;;;3.80;99.90;;;;;;4995060;28;20762;-67
2021/12/09 05:41:42;;;;;;;9.00;4.63;;;3.80;99.90;;;;;;4997740;28;20425;-67
2021/12/09 05:44:10;;;;;;;5.83;4.90;;;3.70;99.90;;;;;;4997871;28;20424;-68
2021/12/09 05:46:38;;;;;;;5.17;4.23;;;3.70;99.90;;;;;;4984059;28;20536;-67
2021/12/09 05:49:06;;;;;;;7.60;4.60;;;3.80;99.90;;;;;;4984825;28;20911;-67
2021/12/09 05:51:32;;;;;;;7.67;4.73;;;3.80;99.90;;;;;;4984284;28;20432;-68
2021/12/09 05:53:57;;;;;;;7.00;5.20;;;3.90;99.90;;;;;;4994047;28;20483;-68
2021/12/09 05:56:23;;;;;;;8.80;4.83;;;3.80;99.90;;;;;;4990433;28;20458;-69
2021/12/09 05:58:49;;;;;;;5.50;5.00;;;3.80;99.90;;;;;;5005639;28;20296;-67
2021/12/09 06:01:15;;;;;;;6.13;5.53;;;3.80;99.90;;;;;;5006487;28;20283;-67
2021/12/09 06:03:41;;;;;;;14.03;9.57;;;3.80;99.90;;;;;;4988642;28;20295;-67
2021/12/09 06:06:07;;;;;;;11.13;7.40;;;3.80;99.90;;;;;;4992518;28;20239;-68
2021/12/09 06:08:36;;;;;;;9.10;6.20;;;3.70;99.90;;;;;;4990964;28;20478;-68
2021/12/09 06:11:03;;;;;;;8.30;5.80;;;3.70;99.90;;;;;;4979225;28;20460;-68
2021/12/09 06:13:31;;;;;;;6.27;5.57;;;3.70;99.90;;;;;;4978705;28;20822;-67
2021/12/09 06:15:57;;;;;;;8.57;5.73;;;3.70;99.90;;;;;;4994613;28;20431;-68
2021/12/09 06:18:23;;;;;;;9.87;6.03;;;3.60;99.90;;;;;;4994409;28;20817;-65
2021/12/09 06:20:49;;;;;;;10.93;5.20;;;3.60;99.90;;;;;;4989665;28;20452;-67
2021/12/09 06:23:14;;;;;;;12.20;5.47;;;3.60;99.90;;;;;;4994055;28;20456;-67
2021/12/09 06:25:40;;;;;;;8.67;4.73;;;3.60;99.90;;;;;;4991929;28;20201;-67
2021/12/09 06:28:05;;;;;;;5.83;4.60;;;3.60;99.90;;;;;;4994987;28;20225;-68
2021/12/09 06:30:31;;;;;;;7.93;5.07;;;3.60;99.90;;;;;;4987533;28;20212;-67
2021/12/09 06:32:57;;;;;;;5.23;4.20;;;3.60;99.90;;;;;;4994776;28;20213;-67
2021/12/09 06:35:25;;;;;;;5.63;4.73;;;3.70;99.90;;;;;;4976263;28;20370;-68
2021/12/09 06:37:51;;;;;;;7.70;4.80;;;3.70;99.90;;;;;;4968931;28;20192;-68
2021/12/09 06:40:19;;;;;;;7.90;4.80;;;3.70;99.90;;;;;;4985976;28;20427;-68
2021/12/09 06:42:46;;;;;;;6.83;5.20;;;3.70;99.90;;;;;;4989643;28;20663;-69
2021/12/09 06:45:13;;;;;;;7.37;4.73;;;3.80;99.90;;;;;;4988674;28;20502;-69
2021/12/09 06:47:40;;;;;;;8.23;5.80;;;3.70;99.90;;;;;;4989342;28;20413;-68
2021/12/09 06:50:07;;;;;;;9.67;5.27;;;3.70;99.90;;;;;;4986406;28;21200;-68
2021/12/09 06:52:33;;;;;;;7.93;4.90;;;3.70;99.90;;;;;;5005409;28;20427;-67
2021/12/09 06:54:59;;;;;;;12.23;6.30;;;3.70;99.90;;;;;;5004417;28;20457;-67
2021/12/09 06:57:25;;;;;;;6.60;4.90;;;3.70;99.90;;;;;;4987255;28;20723;-66
2021/12/09 06:59:51;;;;;;;9.00;5.43;;;3.60;99.90;;;;;;4987379;28;20468;-67
2021/12/09 07:02:17;;;;;;;7.90;6.03;;;3.50;99.90;;;;;;4989174;28;20457;-67
2021/12/09 07:04:43;;;;;;;6.97;5.60;;;3.40;99.90;;;;;;4988930;28;20731;-68
2021/12/09 07:07:08;;;;;;;14.67;9.77;;;3.40;99.90;;;;;;4981068;28;20566;-67
2021/12/09 07:09:34;;;;;;;10.60;6.50;;;3.40;99.90;;;;;;4988890;28;20188;-68
2021/12/09 07:12:00;;;;;;;7.70;5.93;;;3.40;99.90;;;;;;4989227;28;20187;-68
2021/12/09 07:14:25;;;;;;;12.90;6.10;;;3.40;99.90;;;;;;4989091;28;20209;-68
2021/12/09 07:16:51;;;;;;;9.67;5.23;;;3.30;99.90;;;;;;4989496;28;20445;-68
2021/12/09 07:19:17;;;;;;;7.37;5.90;;;3.30;99.90;;;;;;4989829;28;20597;-68
2021/12/09 07:21:43;;;;;;;7.87;5.67;;;3.30;99.90;;;;;;4989425;28;20679;-68
2021/12/09 07:24:08;;;;;;;10.20;5.77;;;3.30;99.90;;;;;;5004596;28;20488;-69
2021/12/09 07:26:34;;;;;;;8.00;4.60;;;3.40;99.90;;;;;;5008472;28;20250;-68
2021/12/09 07:29:00;;;;;;;9.20;4.97;;;3.40;99.90;;;;;;4989955;28;20199;-68
2021/12/09 07:31:27;;;;;;;10.50;5.43;;;3.50;99.90;;;;;;4986212;28;20189;-68
2021/12/09 07:33:54;;;;;;;8.67;5.00;;;3.60;99.90;;;;;;4985580;28;20478;-69
2021/12/09 07:36:19;;;;;;;7.53;4.70;;;3.70;99.90;;;;;;4971054;28;20482;-68
2021/12/09 07:38:46;;;;;;;6.27;3.87;;;3.70;99.90;;;;;;4971871;28;20448;-68
2021/12/09 07:41:15;;;;;;;9.13;6.67;;;3.80;99.90;;;;;;4989696;28;20173;-68
2021/12/09 07:43:41;;;;;;;5.60;4.43;;;3.80;99.90;;;;;;4986348;28;20972;-69
2021/12/09 07:46:07;;;;;;;6.70;3.90;;;3.80;99.90;;;;;;5008888;28;20428;-69
2021/12/09 07:48:33;;;;;;;6.40;4.50;;;3.90;99.90;;;;;;5008716;28;20420;-68
2021/12/09 07:50:58;;;;;;;6.60;3.93;;;3.90;99.90;;;;;;5009094;28;20169;-68
2021/12/09 07:53:24;;;;;;;6.73;4.30;;;4.00;99.90;;;;;;5007170;28;20681;-68
2021/12/09 07:55:52;;;;;;;9.33;5.27;;;4.00;99.90;;;;;;5009553;28;20214;-68
2021/12/09 07:58:18;;;;;;;4.07;3.67;;;4.10;99.90;;;;;;5009408;28;20416;-67
2021/12/09 08:00:44;;;;;;;4.60;4.00;;;4.20;99.90;;;;;;4990919;28;20654;-68
2021/12/09 08:03:10;;;;;;;7.50;4.60;;;4.20;99.90;;;;;;5008999;28;20428;-67
2021/12/09 08:05:38;;;;;;;7.33;4.90;;;4.30;99.90;;;;;;5015336;28;20503;-68
2021/12/09 08:08:05;;;;;;;7.10;4.40;;;4.30;99.90;;;;;;5014358;28;20424;-68
2021/12/09 08:10:31;;;;;;;4.63;4.17;;;4.30;99.90;;;;;;5015374;28;20420;-68
2021/12/09 08:12:58;;;;;;;11.30;4.40;;;4.40;99.90;;;;;;5005875;28;20428;-68
2021/12/09 08:15:25;;;;;;;7.33;4.20;;;4.30;99.90;;;;;;4990913;28;20480;-68
2021/12/09 08:18:25;;;;;;;6.73;4.17;;;4.30;99.90;;;;;;4998038;28;20414;-68
2021/12/09 08:20:51;;;;;;;6.90;5.00;;;4.40;99.90;;;;;;4992265;28;20468;-68
2021/12/09 08:23:18;;;;;;;4.90;4.40;;;4.40;99.90;;;;;;4998289;28;20415;-68
2021/12/09 08:25:44;;;;;;;4.80;3.93;;;4.50;99.90;;;;;;4997997;28;20441;-68
2021/12/09 08:28:11;;;;;;;8.10;4.50;;;4.50;99.90;;;;;;5009687;28;20408;-68
2021/12/09 08:30:38;;;;;;;8.40;4.33;;;4.50;99.90;;;;;;4997735;28;20937;-69
2021/12/09 08:33:05;;;;;;;11.97;4.27;;;4.50;99.90;;;;;;4994643;28;20424;-68
2021/12/09 08:35:31;;;;;;;4.33;3.90;;;4.50;99.90;;;;;;4994320;28;20991;-68
2021/12/09 08:37:58;;;;;;;5.37;4.87;;;4.50;99.90;;;;;;5000128;28;20409;-68
2021/12/09 08:40:26;;;;;;;8.80;5.03;;;4.50;99.90;;;;;;5002808;28;20409;-69
2021/12/09 08:42:52;;;;;;;5.70;4.73;;;4.50;99.90;;;;;;5002363;28;20499;-69
2021/12/09 08:45:19;;;;;;;7.10;4.40;;;4.50;99.90;;;;;;5001777;28;20447;-69
2021/12/09 08:47:45;;;;;;;6.70;4.57;;;4.50;99.90;;;;;;5005618;28;20422;-69
2021/12/09 08:50:14;;;;;;;7.63;4.23;;;4.50;99.90;;;;;;4995084;28;20418;-69
2021/12/09 08:52:40;;;;;;;5.00;4.23;;;4.50;99.90;;;;;;4993805;28;20435;-68
2021/12/09 08:55:08;;;;;;;8.80;5.13;;;4.60;99.90;;;;;;4993630;28;20809;-67
2021/12/09 08:57:36;;;;;;;10.73;5.07;;;4.60;99.90;;;;;;5003863;28;20404;-69
2021/12/09 09:00:08;;;;;;;8.03;4.80;;;4.70;99.90;;;;;;5002101;28;20438;-68
2021/12/09 09:02:34;;;;;;;7.53;5.03;;;4.70;99.90;;;;;;5007727;28;20399;-68
2021/12/09 09:05:00;;;;;;;7.07;4.60;;;4.80;99.90;;;;;;5008657;28;20422;-68
2021/12/09 09:07:26;;;;;;;8.37;4.73;;;4.70;99.90;;;;;;5008438;28;20429;-71
2021/12/09 09:09:51;;;;;;;8.57;4.43;;;4.80;99.90;;;;;;5008400;28;20180;-69
2021/12/09 09:12:17;;;;;;;9.93;4.70;;;4.80;99.90;;;;;;5002697;28;20180;-68
2021/12/09 09:14:43;;;;;;;11.10;5.23;;;4.80;99.90;;;;;;4992827;28;20302;-68
2021/12/09 09:17:09;;;;;;;4.60;4.10;;;4.90;99.90;;;;;;4996629;28;20459;-69
2021/12/09 09:19:36;;;;;;;9.87;5.67;;;4.90;99.90;;;;;;4994125;28;20175;-68
2021/12/09 09:22:03;;;;;;;6.33;4.80;;;4.90;99.90;;;;;;4996517;28;20414;-69
2021/12/09 09:24:28;;;;;;;5.30;4.80;;;5.00;99.90;;;;;;4997008;28;20453;-67
2021/12/09 09:26:54;;;;;;;10.73;6.00;;;5.00;99.90;;;;;;4996973;28;20470;-68
2021/12/09 09:29:20;;;;;;;6.67;5.10;;;5.00;99.90;;;;;;4997950;28;20192;-67
2021/12/09 09:31:46;;;;;;;9.80;5.90;;;5.10;99.90;;;;;;4998680;28;20172;-69
2021/12/09 09:34:12;;;;;;;8.37;5.00;;;5.10;99.90;;;;;;4998598;28;20208;-69
2021/12/09 09:36:43;;;;;;;5.40;4.63;;;5.10;99.90;;;;;;4994771;28;20673;-69
2021/12/09 09:39:19;;;;;;;8.43;5.10;;;5.20;99.90;;;;;;4996662;28;20415;-68
2021/12/09 09:42:06;;;;;;;7.13;4.80;;;5.10;99.90;;;;;;4997429;28;20411;-68
2021/12/09 09:44:45;;;;;;;4.87;4.47;;;5.20;99.90;;;;;;4995526;28;20419;-67
2021/12/09 09:47:11;;;;;;;8.63;4.90;;;5.10;99.90;;;;;;4996600;28;20447;-68
2021/12/09 09:49:38;;;;;;;6.70;4.83;;;5.20;99.90;;;;;;4995617;28;20426;-69
2021/12/09 09:52:05;;;;;;;9.20;4.97;;;5.30;99.90;;;;;;4996724;28;20415;-69
2021/12/09 09:54:31;;;;;;;9.80;4.63;;;5.30;99.90;;;;;;4997022;28;20486;-69
2021/12/09 09:56:57;;;;;;;5.10;4.50;;;5.40;99.90;;;;;;4997010;28;20462;-69
2021/12/09 09:59:22;;;;;;;9.07;4.67;;;5.40;99.90;;;;;;4997568;28;20172;-69
2021/12/09 10:01:52;;;;;;;9.73;4.70;;;5.40;99.90;;;;;;4997299;28;20172;-68
2021/12/09 10:04:47;;;;;;;5.50;4.30;;;5.50;99.90;;;;;;4996012;28;20176;-69
2021/12/09 10:07:19;;;;;;;8.37;4.20;;;5.50;99.90;;;;;;4995802;28;20431;-68
2021/12/09 10:09:46;;;;;;;4.87;3.93;;;5.50;99.90;;;;;;4996081;28;20802;-69
2021/12/09 10:12:12;;;;;;;6.73;4.07;;;5.50;99.90;;;;;;4995928;28;20415;-68
2021/12/09 10:14:38;;;;;;;7.20;5.20;;;5.50;99.90;;;;;;4996025;28;20458;-68
2021/12/09 10:17:12;;;;;;;5.53;4.20;;;5.50;99.90;;;;;;4994576;28;20273;-67
2021/12/09 10:19:48;;;;;;;7.73;5.70;;;5.60;99.90;;;;;;4995939;28;20510;-67
2021/12/09 10:22:16;;;;;;;8.30;4.53;;;5.60;99.90;;;;;;4997110;28;20423;-68
2021/12/09 10:24:44;;;;;;;7.73;4.63;;;5.60;99.90;;;;;;4996260;28;20420;-68
2021/12/09 10:27:36;;;;;;;7.70;5.07;;;5.70;99.90;;;;;;4994940;28;20438;-68
2021/12/09 10:30:08;;;;;;;9.60;4.83;;;5.70;99.90;;;;;;4991495;28;20475;-67
2021/12/09 10:32:34;;;;;;;8.10;4.10;;;5.70;99.90;;;;;;4994591;28;20418;-68
2021/12/09 10:35:09;;;;;;;12.70;6.10;;;5.90;99.90;;;;;;4997238;28;20815;-68
2021/12/09 10:37:36;;;;;;;8.13;5.77;;;5.80;99.90;;;;;;4996339;28;20394;-68
2021/12/09 10:40:14;;;;;;;7.77;5.07;;;5.80;99.90;;;;;;4998776;28;20400;-68
2021/12/09 10:42:46;;;;;;;7.77;5.43;;;5.90;99.90;;;;;;4997555;28;20406;-68
2021/12/09 10:45:28;;;;;;;7.50;4.93;;;6.00;99.90;;;;;;4994814;28;20920;-68
2021/12/09 10:48:05;;;;;;;8.20;4.77;;;6.00;99.90;;;;;;4994806;28;20494;-68
2021/12/09 10:50:44;;;;;;;7.10;5.40;;;6.00;99.90;;;;;;4994766;28;20415;-67
2021/12/09 10:55:52;;;;;;;8.13;5.70;;;6.00;99.90;;;;;;5020504;22;20528;-73
2021/12/09 10:58:21;;;;;;;8.53;4.90;;;6.10;99.90;;;;;;5004882;28;20908;-72
2021/12/09 11:00:46;;;;;;;7.63;4.73;;;6.10;99.90;;;;;;4976616;28;20494;-72
2021/12/09 11:03:23;;;;;;;6.37;4.90;;;6.10;99.90;;;;;;4994003;28;20446;-72
2021/12/09 11:05:59;;;;;;;7.53;4.80;;;6.10;99.90;;;;;;4993362;28;20196;-73
2021/12/09 11:08:44;;;;;;;8.40;5.37;;;6.10;99.90;;;;;;4994161;28;20748;-72
2021/12/09 11:11:14;;;;;;;9.77;5.37;;;6.10;99.90;;;;;;4993836;28;20495;-72
2021/12/09 11:13:48;;;;;;;6.33;4.70;;;6.20;99.90;;;;;;4993598;28;20964;-72
2021/12/09 11:16:24;;;;;;;7.17;5.63;;;6.20;99.90;;;;;;4975728;28;20449;-72
2021/12/09 11:19:06;;;;;;;5.37;4.70;;;6.20;99.90;;;;;;4993476;28;21050;-72
2021/12/09 11:21:37;;;;;;;7.63;4.90;;;6.30;99.90;;;;;;4993332;28;20396;-72
2021/12/09 11:24:10;;;;;;;10.30;4.90;;;6.30;99.90;;;;;;4993114;28;20458;-71
2021/12/09 11:26:44;;;;;;;5.43;4.43;;;6.40;99.90;;;;;;4992791;28;20482;-71
2021/12/09 11:29:14;;;;;;;6.97;5.43;;;6.30;99.90;;;;;;4992991;28;20489;-71
2021/12/09 11:31:45;;;;;;;10.20;5.37;;;6.30;99.90;;;;;;4993097;28;20419;-71
2021/12/09 11:34:16;;;;;;;8.10;4.83;;;6.30;99.90;;;;;;4975138;28;20816;-71
2021/12/09 11:36:54;;;;;;;6.57;4.70;;;6.30;99.90;;;;;;4992921;28;20435;-71
2021/12/09 11:39:28;;;;;;;6.07;4.40;;;6.30;99.90;;;;;;4992555;28;20932;-72
2021/12/09 11:42:03;;;;;;;5.80;4.63;;;6.30;99.90;;;;;;4992548;28;20403;-71
2021/12/09 11:44:29;;;;;;;5.13;4.73;;;6.30;99.90;;;;;;4993026;28;20399;-71
2021/12/09 11:46:54;;;;;;;6.63;5.03;;;6.30;99.90;;;;;;4992320;28;20776;-71
2021/12/09 11:49:20;;;;;;;6.53;4.30;;;6.30;99.90;;;;;;4992449;28;20243;-71
2021/12/09 11:51:47;;;;;;;8.83;5.37;;;6.30;99.90;;;;;;4992632;28;20200;-71
2021/12/09 11:54:13;;;;;;;6.93;4.80;;;6.30;99.90;;;;;;4992517;28;20278;-71
2021/12/09 11:56:57;;;;;;;11.13;4.90;;;6.30;99.90;;;;;;4992172;28;20447;-71
2021/12/09 12:11:27;;;;;;;8.50;4.77;;;6.30;99.90;;;;;;4992631;28;20415;-71
2021/12/09 12:19:34;;;;;;;6.10;4.70;;;6.30;99.90;;;;;;4992444;28;20407;-71
2021/12/09 12:22:20;;;;;;;7.70;4.90;;;6.40;99.90;;;;;;4992652;28;20473;-71
2021/12/09 12:25:07;;;;;;;8.20;4.13;;;6.40;99.90;;;;;;4992401;28;20394;-71
2021/12/09 12:27:45;;;;;;;7.77;4.77;;;6.50;99.90;;;;;;4992365;28;20423;-71
2021/12/09 12:30:38;;;;;;;10.90;4.70;;;6.40;99.90;;;;;;4991987;28;20476;-71
2021/12/09 12:37:05;;;;;;;5.30;3.97;;;6.40;99.90;;;;;;4991919;28;20569;-72
2021/12/09 12:39:01;;;;;;;6.57;4.13;;;6.40;99.90;;;;;;4978754;28;20474;-72
2021/12/09 12:41:27;;;;;;;7.30;4.57;;;6.40;99.90;;;;;;4992385;28;20410;-71
2021/12/09 12:44:04;;;;;;;7.20;4.10;;;6.40;99.90;;;;;;4990970;28;21010;-72
2021/12/09 12:52:04;;;;;;;17.67;9.23;;;6.40;99.90;;;;;;4992772;28;20431;-72
2021/12/09 12:54:40;;;;;;;6.17;4.90;;;6.40;99.90;;;;;;4992873;28;20525;-71
2021/12/09 12:57:16;;;;;;;6.60;4.83;;;6.40;99.90;;;;;;4995315;28;20485;-72
2021/12/09 12:59:59;;;;;;;6.87;3.80;;;6.50;99.90;;;;;;4996010;28;20939;-71
2021/12/09 13:02:56;;;;;;;5.90;4.73;;;6.40;99.90;;;;;;4995808;28;20791;-71
2021/12/09 13:05:36;;;;;;;4.70;3.83;;;6.50;99.90;;;;;;4996245;28;20948;-72
2021/12/09 13:11:15;;;;;;;8.27;4.20;;;6.50;99.90;;;;;;4996289;28;20403;-71
2021/12/09 13:13:49;;;;;;;6.13;4.10;;;6.50;99.90;;;;;;4999781;28;20424;-72
2021/12/09 13:21:41;;;;;;;11.17;4.67;;;6.50;99.90;;;;;;5013210;28;20411;-70
2021/12/09 13:24:21;;;;;;;7.50;4.30;;;6.50;99.90;;;;;;5011142;28;20975;-69
2021/12/09 13:27:07;;;;;;;7.63;4.50;;;6.40;99.90;;;;;;5011203;28;20502;-71
2021/12/09 13:29:47;;;;;;;7.93;3.90;;;6.50;99.90;;;;;;5009888;28;20411;-70
2021/12/09 13:47:16;;;;;;;8.50;3.80;;;6.40;99.90;;;;;;4980395;28;20426;-71
2021/12/09 13:55:04;;;;;;;6.20;4.40;;;6.30;99.90;;;;;;4995021;28;20502;-71
2021/12/09 13:57:36;;;;;;;6.20;4.50;;;6.30;99.90;;;;;;4994336;28;20443;-71
2021/12/09 14:00:27;;;;;;;7.77;4.43;;;6.30;99.90;;;;;;4994461;28;20406;-71
2021/12/09 14:02:58;;;;;;;11.43;4.80;;;6.40;99.90;;;;;;4995263;28;20419;-71